Time;durP1;ratioP1;P1;durP2;ratioP2;P2;SDS_P1;SDS_P2;PMS_P1;PMS_P2;Temp;Humidity;BMP_temperature;BMP_pressure;BME280_temperature;BME280_humidity;BME280_pressure;Samples;Min_cycle;Max_cycle;Signal;HPM_P1;HPM_P2
2023/07/06 00:00:59;;;;;;;11.50;8.13;;;;;;;22.13;67.35;95179.72;5113610;28;20035;-78
2023/07/06 00:03:25;;;;;;;15.20;8.48;;;;;;;22.10;67.12;95159.59;5114103;28;20038;-79
2023/07/06 00:05:50;;;;;;;12.00;7.93;;;;;;;22.26;66.78;95167.72;5113290;28;20027;-78
2023/07/06 00:08:18;;;;;;;10.10;7.95;;;;;;;22.08;66.67;95137.56;5113140;28;20066;-78
2023/07/06 00:10:49;;;;;;;15.15;8.02;;;;;;;22.36;66.59;95175.28;5135523;27;20030;-78
2023/07/06 00:13:15;;;;;;;9.75;7.47;;;;;;;22.15;66.84;95137.72;5136039;27;20027;-78
2023/07/06 00:15:42;;;;;;;11.48;8.70;;;;;;;22.21;66.62;95151.75;5151879;27;20498;-79
2023/07/06 00:18:08;;;;;;;16.52;8.77;;;;;;;;;;5135614;27;20221;-78
2023/07/06 00:20:38;;;;;;;17.65;9.10;;;;;;;22.37;66.75;95174.16;5117326;27;20031;-78
2023/07/06 00:23:08;;;;;;;20.85;8.43;;;;;;;22.25;67.19;95161.53;5135845;27;20195;-78
2023/07/06 00:25:34;;;;;;;14.15;7.93;;;;;;;22.03;66.87;95123.53;5135977;27;20497;-78
2023/07/06 00:28:04;;;;;;;16.13;8.95;;;;;;;22.21;67.05;95168.75;5117111;27;20119;-78
2023/07/06 00:30:40;;;;;;;14.13;8.20;;;;;;;22.16;67.04;95147.41;5151631;27;20035;-78
2023/07/06 00:33:07;;;;;;;16.25;8.45;;;;;;;22.05;66.62;95126.66;5135564;27;20035;-78
2023/07/06 00:35:33;;;;;;;14.95;9.10;;;;;;;21.88;67.26;95119.66;5116818;27;20042;-78
2023/07/06 00:37:59;;;;;;;12.30;8.43;;;;;;;21.98;67.81;95142.66;5135459;27;20398;-78
2023/07/06 00:40:32;;;;;;;11.93;8.93;;;;;;;21.92;67.45;95121.28;5135581;27;20117;-78
2023/07/06 00:42:59;;;;;;;12.65;8.82;;;;;;;22.04;67.56;95141.31;5134844;27;20041;-79
2023/07/06 00:45:25;;;;;;;12.15;8.75;;;;;;;22.13;67.51;95134.59;5135449;27;20027;-78
2023/07/06 00:47:56;;;;;;;11.30;8.35;;;;;;;22.25;67.43;95144.53;5151077;27;20035;-78
2023/07/06 00:50:27;;;;;;;10.50;7.95;;;;;;;22.04;67.70;95127.81;5100166;27;20035;-78
2023/07/06 00:53:11;;;;;;;12.80;8.27;;;;;;;22.07;67.46;95127.09;5134955;27;20035;-78
2023/07/06 00:55:41;;;;;;;12.20;8.40;;;;;;;22.14;67.32;95135.38;5134777;27;20038;-78
2023/07/06 00:58:22;;;;;;;12.13;8.30;;;;;;;21.93;67.44;95098.56;5135004;27;20027;-78
2023/07/06 01:00:49;;;;;;;15.17;9.13;;;;;;;21.81;67.32;95077.06;5135065;27;20288;-78
2023/07/06 01:03:19;;;;;;;15.35;7.80;;;;;;;22.03;67.46;95115.44;5116691;27;20106;-78
2023/07/06 01:05:48;;;;;;;12.15;8.02;;;;;;;22.18;67.87;95153.25;5134623;27;20122;-79
2023/07/06 01:08:18;;;;;;;10.57;7.82;;;;;;;22.15;67.62;95158.56;5134981;27;20409;-78
2023/07/06 01:10:45;;;;;;;10.80;8.00;;;;;;;21.91;68.04;95124.34;5115749;27;20099;-80
2023/07/06 01:13:10;;;;;;;12.57;8.77;;;;;;;21.71;68.05;95082.16;5115932;27;20038;-79
2023/07/06 01:15:43;;;;;;;11.98;7.57;;;;;;;22.15;68.29;95145.84;5133679;27;20107;-80
2023/07/06 01:18:13;;;;;;;11.40;7.80;;;;;;;22.13;68.43;95136.50;5149294;27;20044;-79
2023/07/06 01:20:56;;;;;;;12.10;8.20;;;;;;;21.78;68.57;95087.75;5133987;27;20035;-78
2023/07/06 01:23:42;;;;;;;13.05;7.97;;;;;;;22.09;68.43;95138.34;5133940;27;20454;-78
2023/07/06 01:26:26;;;;;;;9.77;8.07;;;;;;;21.94;68.29;95104.75;5134650;27;20156;-78
2023/07/06 01:29:16;;;;;;;9.45;7.07;;;;;;;22.08;68.39;95131.38;5133817;27;20027;-78
2023/07/06 01:31:53;;;;;;;11.40;7.32;;;;;;;22.07;68.64;95138.69;5116528;27;20099;-78
2023/07/06 01:34:36;;;;;;;11.00;7.45;;;;;;;22.07;68.49;95127.09;5135972;27;20039;-78
2023/07/06 01:37:14;;;;;;;11.13;7.75;;;;;;;21.99;68.49;95115.31;5133987;27;20061;-78
2023/07/06 01:39:40;;;;;;;11.77;8.40;;;;;;;21.94;68.50;95115.56;5134294;27;20116;-78
2023/07/06 01:42:26;;;;;;;10.70;7.80;;;;;;;22.02;68.87;95132.75;5134460;27;20617;-78
2023/07/06 01:44:56;;;;;;;13.50;7.57;;;;;;;21.91;69.08;95122.44;5115231;27;20499;-78
2023/07/06 01:47:23;;;;;;;13.93;8.13;;;;;;;21.72;68.83;95091.84;5149929;27;20031;-78
2023/07/06 01:49:50;;;;;;;11.75;8.18;;;;;;;21.97;69.14;95135.72;5134203;27;20280;-78
2023/07/06 01:52:41;;;;;;;12.05;8.77;;;;;;;21.95;68.98;95130.63;5149775;27;20482;-78
2023/07/06 01:55:26;;;;;;;13.65;8.05;;;;;;;21.91;68.86;95130.53;5114956;27;20039;-78
2023/07/06 01:58:23;;;;;;;11.63;7.78;;;;;;;21.89;69.03;95132.03;5114824;27;20033;-78
2023/07/06 02:00:57;;;;;;;10.55;7.47;;;;;;;21.74;69.09;95121.97;5115099;27;20413;-78
2023/07/06 02:03:24;;;;;;;13.38;7.80;;;;;;;21.27;69.43;95076.78;5115138;27;20031;-78
2023/07/06 02:05:51;;;;;;;15.57;7.80;;;;;;;21.33;69.59;95075.38;5149677;27;20088;-78
2023/07/06 02:08:18;;;;;;;10.40;7.47;;;;;;;20.93;69.67;95013.38;5114835;27;20546;-78
2023/07/06 02:10:43;;;;;;;13.98;8.88;;;;;;;21.41;69.65;95090.63;5115102;27;20519;-79
2023/07/06 02:13:09;;;;;;;17.60;8.77;;;;;;;21.17;69.83;95058.38;5115428;27;20035;-79
2023/07/06 02:15:35;;;;;;;10.98;7.65;;;;;;;20.99;69.83;95033.56;5133918;27;20027;-79
2023/07/06 02:18:02;;;;;;;13.93;7.28;;;;;;;21.04;70.05;95057.59;5115097;27;20047;-79
2023/07/06 02:20:28;;;;;;;11.80;8.25;;;;;;;21.53;70.42;95136.44;5134497;27;20054;-79
2023/07/06 02:22:53;;;;;;;10.52;7.68;;;;;;;21.44;70.25;95113.44;5133357;27;20027;-79
2023/07/06 02:25:20;;;;;;;13.88;8.32;;;;;;;21.41;70.44;95109.53;5114969;27;20027;-79
2023/07/06 02:27:46;;;;;;;11.40;7.40;;;;;;;21.12;70.42;95067.47;5133602;27;20034;-78
2023/07/06 02:30:12;;;;;;;14.90;8.63;;;;;;;21.53;70.56;95112.16;5114656;27;20390;-79
2023/07/06 02:32:39;;;;;;;11.68;8.30;;;;;;;21.07;70.54;95046.13;5132907;27;20413;-79
2023/07/06 02:35:06;;;;;;;22.08;8.80;;;;;;;21.46;70.76;95106.56;5097573;27;20478;-79
2023/07/06 02:37:32;;;;;;;19.13;8.80;;;;;;;21.39;70.55;95100.97;5114411;27;20023;-78
2023/07/06 02:39:58;;;;;;;14.80;8.75;;;;;;;21.09;71.22;95100.50;5114354;27;20035;-78
2023/07/06 02:42:25;;;;;;;13.15;9.07;;;;;;;21.34;71.31;95120.13;5114576;27;20035;-79
2023/07/06 02:44:50;;;;;;;15.48;9.50;;;;;;;21.27;71.83;95119.91;5132766;27;20481;-79
2023/07/06 02:47:16;;;;;;;19.85;9.68;;;;;;;20.88;71.24;95039.78;5133287;27;20039;-79
2023/07/06 02:49:41;;;;;;;28.55;11.48;;;;;;;21.00;71.85;95085.56;5133024;27;20034;-78
2023/07/06 02:52:07;;;;;;;17.55;10.50;;;;;;;21.11;71.08;95109.03;5133405;27;20471;-78
2023/07/06 02:54:32;;;;;;;21.67;10.50;;;;;;;20.83;71.05;95031.97;5132748;27;20039;-79
2023/07/06 02:57:00;;;;;;;24.40;10.57;;;;;;;21.25;71.20;95116.00;5132968;27;20042;-79
2023/07/06 02:59:27;;;;;;;22.55;10.52;;;;;;;20.71;70.83;95024.69;5132970;27;20482;-79
2023/07/06 03:01:52;;;;;;;17.00;9.43;;;;;;;21.47;70.04;95113.53;5114074;27;20035;-79
2023/07/06 03:04:19;;;;;;;22.80;10.05;;;;;;;21.20;69.74;95086.56;5132506;27;20038;-78
2023/07/06 03:06:45;;;;;;;20.88;10.32;;;;;;;21.48;69.65;95117.03;5113556;27;20185;-78
2023/07/06 03:09:11;;;;;;;18.33;10.38;;;;;;;21.37;69.47;95116.72;5113876;27;20541;-78
2023/07/06 03:11:37;;;;;;;21.42;10.07;;;;;;;21.46;69.18;95101.19;5113698;27;20096;-78
2023/07/06 03:14:04;;;;;;;15.23;8.23;;;;;;;21.56;68.49;95105.31;5113633;27;20035;-79
2023/07/06 03:16:39;;;;;;;17.65;8.77;;;;;;;21.39;68.16;95084.78;5113668;27;20079;-79
2023/07/06 03:19:05;;;;;;;12.38;8.35;;;;;;;21.55;67.51;95082.94;5113564;28;20058;-79
2023/07/06 03:21:31;;;;;;;15.57;9.27;;;;;;;21.45;67.85;95088.81;5132419;27;20035;-79
2023/07/06 03:23:58;;;;;;;15.80;8.10;;;;;;;20.92;68.09;95022.59;5132080;27;20135;-79
2023/07/06 03:26:24;;;;;;;17.13;8.75;;;;;;;21.23;68.04;95054.28;5114234;27;20043;-79
2023/07/06 03:28:50;;;;;;;19.05;8.45;;;;;;;21.59;67.23;95090.34;5113650;27;20027;-79
2023/07/06 03:31:15;;;;;;;14.73;8.93;;;;;;;21.18;66.97;95022.19;5132160;27;20042;-79
2023/07/06 03:33:41;;;;;;;14.38;8.13;;;;;;;21.53;67.53;95069.00;5132316;27;20489;-79
2023/07/06 03:36:07;;;;;;;13.93;7.90;;;;;;;21.81;66.88;95103.28;5132571;27;20130;-79
2023/07/06 03:38:35;;;;;;;16.30;8.35;;;;;;;21.63;66.91;95072.31;5132298;27;20035;-79
2023/07/06 03:41:04;;;;;;;12.98;7.93;;;;;;;21.66;67.31;95079.72;5131999;28;20061;-79
2023/07/06 03:43:31;;;;;;;13.13;8.25;;;;;;;21.43;67.52;95066.81;5132153;28;20047;-79
2023/07/06 03:45:56;;;;;;;14.30;9.23;;;;;;;21.58;67.73;95078.75;5130106;27;20486;-79
2023/07/06 03:48:22;;;;;;;15.00;8.90;;;;;;;21.55;67.75;95085.63;5113653;28;20035;-79
2023/07/06 03:50:52;;;;;;;17.73;8.90;;;;;;;21.53;68.08;95090.56;5113360;28;20041;-79
2023/07/06 03:53:19;;;;;;;17.85;8.95;;;;;;;21.45;68.07;95071.84;5131860;28;20054;-79
2023/07/06 03:55:45;;;;;;;14.38;8.15;;;;;;;21.51;68.41;95098.22;5113726;28;20573;-79
2023/07/06 03:58:10;;;;;;;15.52;9.95;;;;;;;21.65;68.38;95103.25;5113329;28;20114;-79
2023/07/06 04:00:36;;;;;;;18.73;9.35;;;;;;;21.53;67.90;95077.09;5112909;28;20180;-79
2023/07/06 04:03:03;;;;;;;15.55;8.93;;;;;;;21.58;67.88;95077.97;5131512;28;20085;-79
2023/07/06 04:05:43;;;;;;;17.58;8.05;;;;;;;21.42;68.42;95064.44;5147625;27;20096;-79
2023/07/06 04:08:13;;;;;;;17.67;8.80;;;;;;;21.40;68.53;95067.50;5147709;27;20084;-79
2023/07/06 04:10:40;;;;;;;16.13;8.52;;;;;;;21.61;68.33;95088.06;5131274;28;20042;-79
2023/07/06 04:13:06;;;;;;;14.20;8.25;;;;;;;21.51;69.18;95106.31;5131646;28;20039;-79
2023/07/06 04:15:34;;;;;;;14.65;8.68;;;;;;;21.34;69.43;95103.16;5147409;27;20417;-79
2023/07/06 04:18:00;;;;;;;12.98;8.88;;;;;;;21.22;69.78;95103.97;5131713;28;20051;-79
2023/07/06 04:20:29;;;;;;;20.45;9.52;;;;;;;21.30;69.91;95113.81;5132153;28;20043;-79
2023/07/06 04:22:56;;;;;;;25.10;10.05;;;;;;;21.35;69.82;95116.31;5131481;28;20039;-79
2023/07/06 04:25:26;;;;;;;24.30;8.90;;;;;;;21.01;69.56;95076.38;5131646;28;20247;-79
2023/07/06 04:27:52;;;;;;;21.42;8.43;;;;;;;21.00;69.64;95080.97;5131282;28;20039;-79
2023/07/06 04:30:19;;;;;;;15.55;9.00;;;;;;;20.87;69.95;95071.34;5113102;28;20416;-79
2023/07/06 04:32:49;;;;;;;19.90;9.60;;;;;;;21.08;70.00;95098.91;5131544;28;20035;-80
2023/07/06 04:35:18;;;;;;;20.95;9.38;;;;;;;20.72;69.65;95021.66;5131456;28;20417;-79
2023/07/06 04:37:47;;;;;;;15.35;9.38;;;;;;;21.42;69.37;95113.78;5131385;28;20035;-79
2023/07/06 04:40:13;;;;;;;17.85;8.80;;;;;;;21.51;69.06;95113.66;5131449;28;20055;-79
2023/07/06 04:42:43;;;;;;;18.77;8.13;;;;;;;21.58;68.78;95108.44;5131407;28;20107;-79
2023/07/06 04:45:12;;;;;;;19.38;9.60;;;;;;;21.40;68.01;95067.50;5130771;28;20070;-79
2023/07/06 04:47:38;;;;;;;16.30;8.15;;;;;;;21.33;68.78;95088.09;5111869;28;20035;-79
2023/07/06 04:50:08;;;;;;;14.93;8.70;;;;;;;21.22;68.19;95054.63;5124719;28;20031;-79
2023/07/06 04:52:37;;;;;;;17.63;9.05;;;;;;;21.29;68.42;95058.31;5128453;28;20471;-79
2023/07/06 04:55:05;;;;;;;18.95;9.38;;;;;;;21.57;67.98;95079.88;5116436;28;20031;-79
2023/07/06 04:57:31;;;;;;;14.32;8.40;;;;;;;21.72;68.08;95089.94;5122853;27;20480;-79
2023/07/06 04:59:57;;;;;;;15.40;9.43;;;;;;;21.39;68.60;95079.41;5126173;27;20035;-79
2023/07/06 05:02:23;;;;;;;13.55;9.70;;;;;;;21.53;68.43;95089.78;5134928;27;20051;-79
2023/07/06 05:04:49;;;;;;;14.05;8.85;;;;;;;21.56;68.50;95089.09;5143417;27;20455;-79
2023/07/06 05:07:15;;;;;;;19.40;9.48;;;;;;;21.74;68.21;95098.44;5134311;27;20023;-79
2023/07/06 05:09:41;;;;;;;17.20;8.98;;;;;;;21.72;68.13;95079.13;5137437;27;20098;-79
2023/07/06 05:12:08;;;;;;;17.73;8.88;;;;;;;21.33;68.08;95024.13;5133314;27;20543;-79
2023/07/06 05:14:36;;;;;;;19.17;9.85;;;;;;;21.47;67.59;95037.22;5144375;27;20129;-79
2023/07/06 05:17:01;;;;;;;21.13;10.90;;;;;;;21.81;67.80;95092.47;5098501;27;20066;-79
2023/07/06 05:19:27;;;;;;;19.77;10.80;;;;;;;21.98;67.27;95099.47;5130031;27;20042;-79
2023/07/06 05:21:57;;;;;;;21.95;10.52;;;;;;;21.79;67.74;95087.41;5114942;27;20032;-79
2023/07/06 05:24:24;;;;;;;16.80;9.75;;;;;;;21.66;67.42;95060.84;5116719;27;20027;-79
2023/07/06 05:26:50;;;;;;;17.38;11.48;;;;;;;21.99;67.61;95111.84;5152878;27;20142;-80
2023/07/06 05:29:15;;;;;;;15.10;10.57;;;;;;;22.30;66.83;95119.97;5107327;27;20034;-79
2023/07/06 05:31:42;;;;;;;19.45;11.52;;;;;;;22.04;67.58;95095.41;5111355;27;20125;-79
2023/07/06 05:34:08;;;;;;;22.98;11.93;;;;;;;22.07;67.60;95125.19;5108008;27;20557;-79
2023/07/06 05:36:36;;;;;;;21.13;10.02;;;;;;;22.37;67.21;95133.63;5113096;27;20176;-79
2023/07/06 05:39:05;;;;;;;17.58;10.07;;;;;;;22.07;67.44;95092.78;5115306;27;20114;-80
2023/07/06 05:41:30;;;;;;;21.27;10.77;;;;;;;22.10;67.39;95107.50;5120741;27;20088;-79
2023/07/06 05:43:56;;;;;;;20.05;10.25;;;;;;;22.05;67.67;95123.97;5120319;27;20084;-80
2023/07/06 05:46:23;;;;;;;18.13;10.30;;;;;;;21.95;68.28;95131.41;5119016;27;20027;-79
2023/07/06 05:48:49;;;;;;;13.55;9.40;;;;;;;21.93;67.50;95108.59;5129793;27;20058;-80
2023/07/06 05:51:15;;;;;;;20.40;9.35;;;;;;;22.16;67.38;95142.00;5142390;27;20122;-80
2023/07/06 05:53:40;;;;;;;23.20;10.15;;;;;;;21.81;68.05;95105.97;5136062;27;20039;-79
2023/07/06 05:56:07;;;;;;;20.30;10.80;;;;;;;21.86;67.59;95101.09;5123468;27;20509;-79
2023/07/06 05:58:33;;;;;;;20.38;10.52;;;;;;;21.63;67.63;95051.53;5115220;27;20039;-79
2023/07/06 06:00:59;;;;;;;17.52;10.20;;;;;;;21.78;67.69;95085.84;5126842;27;20038;-79
2023/07/06 06:03:25;;;;;;;16.48;9.15;;;;;;;21.87;67.65;95105.38;5151263;27;20079;-79
2023/07/06 06:05:52;;;;;;;14.50;8.93;;;;;;;21.81;67.40;95081.69;5148378;27;20027;-80
2023/07/06 06:08:18;;;;;;;16.85;9.65;;;;;;;21.73;67.73;95083.41;5130722;27;20533;-80
2023/07/06 06:10:44;;;;;;;18.38;9.93;;;;;;;22.04;67.60;95108.91;5133656;27;20040;-79
2023/07/06 06:13:10;;;;;;;15.27;9.77;;;;;;;22.27;67.28;95137.66;5153376;27;20481;-79
2023/07/06 06:15:36;;;;;;;17.40;8.95;;;;;;;21.87;67.55;95091.88;5085490;27;20039;-79
2023/07/06 06:18:03;;;;;;;21.90;9.38;;;;;;;22.18;67.60;95142.44;5136437;27;20044;-79
2023/07/06 06:20:30;;;;;;;15.00;8.73;;;;;;;21.93;66.46;95111.28;5137850;27;20058;-80
2023/07/06 06:22:56;;;;;;;10.60;8.25;;;;;;;21.80;66.92;95094.38;5144935;27;20065;-79
2023/07/06 06:25:21;;;;;;;13.32;8.68;;;;;;;21.65;67.72;95121.34;5122448;27;20503;-79
2023/07/06 06:27:47;;;;;;;13.82;8.70;;;;;;;21.65;67.96;95115.94;5112805;27;20743;-79
2023/07/06 06:30:14;;;;;;;26.58;10.00;;;;;;;21.84;68.27;95141.13;5129965;27;20039;-80
2023/07/06 06:32:41;;;;;;;12.93;8.35;;;;;;;21.57;67.68;95098.78;5130843;27;20050;-80
2023/07/06 06:35:29;;;;;;;17.00;9.18;;;;;;;21.87;67.57;95109.97;5113613;27;20141;-79
2023/07/06 06:37:57;;;;;;;12.55;8.48;;;;;;;21.30;67.97;95041.00;5116684;27;20121;-80
2023/07/06 06:40:23;;;;;;;12.13;8.50;;;;;;;21.65;67.28;95099.75;5131471;27;20035;-79
2023/07/06 06:42:49;;;;;;;12.15;8.30;;;;;;;21.92;67.52;95126.69;5141788;27;20053;-79
2023/07/06 06:45:16;;;;;;;11.30;8.88;;;;;;;21.91;67.75;95132.44;5122625;27;20045;-79
2023/07/06 06:47:42;;;;;;;15.80;8.40;;;;;;;21.59;68.10;95087.66;5112489;27;20468;-79
2023/07/06 06:50:09;;;;;;;13.88;8.35;;;;;;;21.91;67.52;95108.13;5126985;27;20085;-79
2023/07/06 06:52:36;;;;;;;13.82;7.90;;;;;;;22.00;67.22;95125.00;5125866;27;20035;-80
2023/07/06 06:55:02;;;;;;;11.13;8.60;;;;;;;21.82;67.30;95072.41;5121896;27;20031;-79
2023/07/06 06:57:29;;;;;;;15.18;8.85;;;;;;;22.13;66.87;95094.06;5113871;27;20115;-78
2023/07/06 06:59:55;;;;;;;12.07;8.43;;;;;;;22.23;67.16;95117.09;5107203;27;20050;-78
2023/07/06 07:02:22;;;;;;;14.50;8.15;;;;;;;22.29;67.40;95119.16;5141861;27;20409;-78
2023/07/06 07:04:49;;;;;;;14.90;8.45;;;;;;;21.94;65.97;95058.84;5114448;27;20073;-78
2023/07/06 07:07:15;;;;;;;11.80;7.47;;;;;;;22.46;65.26;95117.25;5117989;27;20034;-79
2023/07/06 07:09:41;;;;;;;12.10;7.63;;;;;;;22.40;65.92;95086.22;5142853;27;20503;-78
2023/07/06 07:12:07;;;;;;;17.65;7.95;;;;;;;22.68;64.88;95109.28;5126870;27;20027;-79
2023/07/06 07:14:33;;;;;;;14.05;7.68;;;;;;;22.45;65.04;95064.34;5128555;27;20026;-78
2023/07/06 07:16:58;;;;;;;16.65;6.75;;;;;;;22.80;64.40;95105.72;5128169;27;20050;-79
2023/07/06 07:19:24;;;;;;;16.08;6.50;;;;;;;22.81;63.44;95103.81;5129385;27;20042;-79
2023/07/06 07:21:50;;;;;;;12.95;7.82;;;;;;;22.76;62.96;95068.91;5134712;27;20501;-79
2023/07/06 07:24:16;;;;;;;9.48;6.90;;;;;;;23.13;62.73;95113.38;5121784;27;20033;-79
2023/07/06 07:26:43;;;;;;;9.82;7.38;;;;;;;23.07;62.16;95074.22;5137565;27;20121;-79
2023/07/06 07:29:09;;;;;;;10.27;7.47;;;;;;;23.18;62.49;95101.50;5141811;27;20475;-79
2023/07/06 07:31:34;;;;;;;10.70;7.38;;;;;;;23.11;62.63;95082.44;5112635;27;20034;-79
2023/07/06 07:34:00;;;;;;;10.07;7.15;;;;;;;23.13;62.46;95083.63;5127006;27;20027;-79
2023/07/06 07:36:25;;;;;;;15.82;7.10;;;;;;;23.29;61.62;95094.38;5131475;27;20059;-79
2023/07/06 07:38:51;;;;;;;8.93;6.88;;;;;;;23.22;61.70;95083.41;5127408;27;20062;-79
2023/07/06 07:41:22;;;;;;;13.05;7.10;;;;;;;23.08;61.55;95046.84;5113335;27;20031;-79
2023/07/06 07:43:48;;;;;;;12.77;7.03;;;;;;;23.69;61.02;95107.56;5129791;27;20031;-79
2023/07/06 07:46:16;;;;;;;10.68;6.75;;;;;;;23.42;60.57;95047.13;5138274;27;20651;-79
2023/07/06 07:48:45;;;;;;;12.93;6.80;;;;;;;23.95;60.11;95104.97;5115968;28;20029;-79
2023/07/06 07:51:16;;;;;;;10.20;6.97;;;;;;;24.08;59.39;95109.06;5105082;28;20033;-79
2023/07/06 07:53:44;;;;;;;12.00;7.53;;;;;;;23.84;59.06;95060.66;5093336;28;20031;-79
2023/07/06 07:56:10;;;;;;;9.57;6.60;;;;;;;24.24;58.25;95108.97;5126171;28;20110;-79
2023/07/06 07:58:37;;;;;;;10.90;6.40;;;;;;;24.23;58.89;95110.13;5120339;27;20035;-79
2023/07/06 08:01:05;;;;;;;12.98;6.90;;;;;;;24.37;59.12;95115.00;5113700;28;20034;-79
2023/07/06 08:03:31;;;;;;;9.32;6.30;;;;;;;24.34;58.54;95099.44;5118825;28;20027;-79
2023/07/06 08:06:03;;;;;;;15.20;7.30;;;;;;;24.27;59.33;95080.34;5121366;28;20054;-79
2023/07/06 08:08:30;;;;;;;12.90;7.63;;;;;;;24.37;57.98;95104.94;5119577;28;20039;-79
2023/07/06 08:11:00;;;;;;;11.80;6.85;;;;;;;24.28;58.13;95080.00;5129376;27;20053;-79
2023/07/06 08:13:26;;;;;;;12.32;6.75;;;;;;;24.55;57.98;95099.81;5140842;27;20028;-79
2023/07/06 08:15:51;;;;;;;14.60;7.93;;;;;;;24.18;58.10;95024.47;5133650;27;20029;-79
2023/07/06 08:18:18;;;;;;;12.75;7.57;;;;;;;24.21;58.88;95031.13;5143298;27;20039;-79
2023/07/06 08:20:43;;;;;;;10.13;6.97;;;;;;;24.45;58.15;95084.94;5120873;28;20027;-79
2023/07/06 08:23:12;;;;;;;12.80;8.50;;;;;;;24.21;58.41;95050.09;5127362;27;20358;-80
2023/07/06 08:25:40;;;;;;;12.00;6.93;;;;;;;24.57;58.29;95098.28;5137091;27;20034;-79
2023/07/06 08:28:07;;;;;;;10.32;7.18;;;;;;;24.79;56.54;95109.47;5150064;27;20054;-79
2023/07/06 08:30:33;;;;;;;14.55;7.20;;;;;;;24.78;57.08;95110.59;5129202;27;20103;-79
2023/07/06 08:33:02;;;;;;;15.20;7.40;;;;;;;24.46;57.32;95061.31;5123979;27;20031;-79
2023/07/06 08:35:29;;;;;;;16.85;7.85;;;;;;;24.79;57.00;95095.91;5115983;27;20118;-79
2023/07/06 08:37:55;;;;;;;8.48;6.57;;;;;;;24.68;57.01;95075.97;5131151;27;20121;-79
2023/07/06 08:40:24;;;;;;;13.20;7.85;;;;;;;25.00;56.34;95098.94;5132542;27;20523;-79
2023/07/06 08:42:50;;;;;;;15.15;7.38;;;;;;;25.14;55.99;95093.69;5133706;27;20027;-79
2023/07/06 08:45:24;;;;;;;9.85;6.82;;;;;;;25.05;56.44;95066.03;5132396;27;20023;-79
2023/07/06 08:47:51;;;;;;;9.30;6.78;;;;;;;25.24;55.82;95082.19;5128844;27;20031;-79
2023/07/06 08:50:25;;;;;;;9.35;6.78;;;;;;;25.17;55.32;95060.41;5133225;27;20031;-79
2023/07/06 08:52:53;;;;;;;10.88;6.90;;;;;;;25.44;55.21;95099.09;5161970;27;20397;-79
2023/07/06 08:55:18;;;;;;;13.32;7.53;;;;;;;25.09;54.68;95047.91;5139722;27;20034;-80
2023/07/06 08:57:45;;;;;;;12.13;6.97;;;;;;;25.40;53.59;95097.50;5121832;27;20027;-80
2023/07/06 09:00:25;;;;;;;8.85;5.85;;;;;;;25.10;53.44;95073.09;5143798;27;20031;-80
2023/07/06 09:02:56;;;;;;;11.20;6.90;;;;;;;25.23;54.65;95096.91;5141972;27;20042;-80
2023/07/06 09:05:21;;;;;;;11.48;6.25;;;;;;;25.13;53.72;95062.28;5153746;27;20023;-80
2023/07/06 09:07:48;;;;;;;12.43;6.20;;;;;;;25.40;53.46;95094.78;5108903;27;20137;-80
2023/07/06 09:10:20;;;;;;;11.73;6.50;;;;;;;25.41;52.87;95105.25;5107995;27;20035;-80
2023/07/06 09:12:46;;;;;;;8.82;6.53;;;;;;;25.30;53.19;95098.94;5127656;27;20032;-80
2023/07/06 09:15:16;;;;;;;9.70;6.28;;;;;;;25.29;52.89;95091.94;5123569;27;20122;-80
2023/07/06 09:17:50;;;;;;;7.13;5.78;;;;;;;25.38;52.60;95093.22;5123916;27;20043;-80
2023/07/06 09:20:17;;;;;;;9.73;6.57;;;;;;;25.44;51.62;95099.09;5143724;27;20027;-80
2023/07/06 09:22:44;;;;;;;9.82;6.03;;;;;;;25.58;51.85;95104.72;5142571;27;20031;-80
2023/07/06 09:25:25;;;;;;;10.65;6.03;;;;;;;25.37;53.90;95050.16;5147004;27;20046;-80
2023/07/06 09:27:52;;;;;;;10.98;6.28;;;;;;;25.90;53.50;95105.06;5098242;27;20027;-80
2023/07/06 09:30:29;;;;;;;11.73;6.00;;;;;;;26.02;51.58;95088.50;5109653;27;20055;-80
2023/07/06 09:33:00;;;;;;;13.25;6.10;;;;;;;26.00;52.59;95074.53;5130289;27;20027;-79
2023/07/06 09:35:29;;;;;;;9.32;6.45;;;;;;;25.96;52.47;95051.97;5149392;27;20071;-81
2023/07/06 09:37:54;;;;;;;10.00;6.00;;;;;;;26.37;50.09;95081.84;5154488;27;20508;-79
2023/07/06 09:40:28;;;;;;;8.93;5.78;;;;;;;26.50;49.66;95085.84;5153641;27;20042;-79
2023/07/06 09:42:53;;;;;;;9.50;5.88;;;;;;;26.40;51.35;95081.09;5152978;27;20038;-79
2023/07/06 09:45:29;;;;;;;10.52;6.22;;;;;;;26.40;50.10;95081.09;5151267;27;20026;-79
2023/07/06 09:48:01;;;;;;;13.85;5.95;;;;;;;26.63;49.23;95072.69;5121468;27;20039;-79
2023/07/06 09:50:37;;;;;;;14.52;7.25;;;;;;;27.33;48.04;95069.63;5128635;27;20470;-79
2023/07/06 09:53:07;;;;;;;10.32;5.43;;;;;;;27.70;46.77;95072.13;5129649;27;20111;-79
2023/07/06 09:55:33;;;;;;;13.37;6.70;;;;;;;28.56;44.65;95057.44;5133125;27;20138;-79
2023/07/06 09:58:00;;;;;;;7.72;5.40;;;;;;;29.54;44.35;95065.78;5113563;27;20033;-79
2023/07/06 10:00:49;;;;;;;7.28;5.10;;;;;;;30.60;41.81;95064.34;5146672;27;20027;-79
2023/07/06 10:03:36;;;;;;;6.10;5.28;;;;;;;31.56;39.82;95072.34;5121475;27;20039;-79
2023/07/06 10:06:55;;;;;;;9.52;5.07;;;;;;;32.37;38.21;95039.50;5132089;27;20047;-79
2023/07/06 10:09:28;;;;;;;6.43;4.68;;;;;;;32.76;35.76;95036.91;5130212;27;20092;-80
2023/07/06 10:11:56;;;;;;;10.88;5.78;;;;;;;33.03;35.72;95064.28;5115075;27;20042;-79
2023/07/06 10:14:44;;;;;;;8.32;5.00;;;;;;;33.34;35.47;95059.38;5133076;27;20030;-79
2023/07/06 10:17:28;;;;;;;6.82;4.50;;;;;;;32.38;36.45;95063.00;5129541;27;20059;-79
2023/07/06 10:20:05;;;;;;;7.28;4.93;;;;;;;33.08;35.96;95060.25;5123608;27;20059;-79
2023/07/06 10:23:23;;;;;;;9.05;4.80;;;;;;;33.14;37.86;95062.09;5131060;27;20520;-79
2023/07/06 10:26:01;;;;;;;9.95;4.88;;;;;;;32.99;36.64;95060.81;5088905;27;20125;-79
2023/07/06 10:28:31;;;;;;;6.32;4.40;;;;;;;32.22;36.85;95058.16;5132962;27;20042;-80
2023/07/06 10:30:59;;;;;;;8.02;4.93;;;;;;;32.32;37.04;95075.66;5134218;27;20088;-79
2023/07/06 10:33:30;;;;;;;6.82;4.68;;;;;;;32.09;37.34;95082.63;5134092;27;20030;-79
2023/07/06 10:35:58;;;;;;;7.90;5.03;;;;;;;31.95;37.74;95076.56;5146876;27;20043;-80
2023/07/06 10:38:24;;;;;;;7.30;4.68;;;;;;;31.78;38.48;95065.44;5109369;27;20027;-79
2023/07/06 10:41:10;;;;;;;6.38;4.80;;;;;;;31.42;39.30;95054.13;5123284;27;20039;-80
2023/07/06 10:43:40;;;;;;;6.63;4.80;;;;;;;31.27;39.78;95060.19;5121349;27;20039;-79
2023/07/06 10:46:53;;;;;;;10.88;4.95;;;;;;;30.98;41.07;95068.66;5120132;27;20155;-79
2023/07/06 10:49:20;;;;;;;9.68;4.82;;;;;;;30.69;40.78;95035.31;5076932;28;20043;-79
2023/07/06 10:51:51;;;;;;;10.00;5.30;;;;;;;30.28;40.98;95004.41;5066752;28;20044;-79
2023/07/06 10:54:32;;;;;;;8.63;4.85;;;;;;;30.29;41.79;95066.91;5111467;27;20130;-79
2023/07/06 10:57:10;;;;;;;12.65;5.50;;;;;;;30.27;41.53;95063.81;5100634;27;20504;-79
2023/07/06 10:59:39;;;;;;;8.07;5.68;;;;;;;29.67;42.16;95041.53;5114644;27;20060;-79
2023/07/06 11:02:24;;;;;;;15.48;6.97;;;;;;;29.15;45.05;95061.22;5120972;27;20080;-79
2023/07/06 11:05:08;;;;;;;8.23;5.78;;;;;;;29.30;44.25;95053.75;5118213;27;20069;-79
2023/07/06 11:08:10;;;;;;;8.45;6.78;;;;;;;29.05;44.45;95009.41;5126202;27;20454;-79
2023/07/06 11:10:37;;;;;;;11.57;6.68;;;;;;;29.38;44.10;95040.88;5105658;27;20035;-79
2023/07/06 11:13:06;;;;;;;12.35;7.35;;;;;;;29.27;46.13;95043.66;5137717;27;20052;-79
2023/07/06 11:15:48;;;;;;;14.93;7.63;;;;;;;28.84;46.16;95014.94;5146411;27;20027;-79
2023/07/06 11:18:37;;;;;;;9.40;7.13;;;;;;;28.43;46.11;94963.53;5103440;27;20035;-79
2023/07/06 11:21:24;;;;;;;11.43;6.90;;;;;;;29.36;46.33;95040.53;5122686;27;20023;-79
2023/07/06 11:23:57;;;;;;;8.77;6.75;;;;;;;29.57;45.92;95006.84;5124071;27;20107;-79
2023/07/06 11:26:23;;;;;;;9.98;5.57;;;;;;;30.08;45.57;95034.25;5130567;27;20138;-79
2023/07/06 11:28:49;;;;;;;11.80;5.43;;;;;;;30.26;44.12;95004.03;5120541;27;20103;-79
2023/07/06 11:31:26;;;;;;;13.90;4.93;;;;;;;30.94;43.56;95028.81;5132477;27;20026;-79
2023/07/06 11:34:22;;;;;;;6.70;4.65;;;;;;;31.39;42.40;95051.41;5130636;27;20102;-79
2023/07/06 11:37:15;;;;;;;5.88;4.85;;;;;;;31.93;40.70;95055.03;5097825;27;20035;-79
2023/07/06 11:40:28;;;;;;;8.23;4.32;;;;;;;31.97;41.40;95055.75;5140101;27;20113;-79